Estación de Quillota

Ultimos registro cada 15 minutos 93
Estación Fecha / Hora Temperatura Humedad Lluvia Velocidad Dirección Radiación Presion
93 Quillota 02-05-2026 23:00 9,8 86 0 0,9 111 0 1016,4
92 Quillota 02-05-2026 22:45 10,2 85 0 0 175 0 1016,6
91 Quillota 02-05-2026 22:30 9,9 88 0 0,4 180 0 1016,7
90 Quillota 02-05-2026 22:15 8,9 86 0 0 185 0 1016,5
89 Quillota 02-05-2026 22:00 9,2 85 0 0,4 185 0 1016,4
88 Quillota 02-05-2026 21:45 9,3 85 0 0 109 0 1016,1
87 Quillota 02-05-2026 21:30 9,4 84 0 0,4 108 0 1015,5
86 Quillota 02-05-2026 21:15 9,8 83 0 0 109 0 1015,3
85 Quillota 02-05-2026 21:00 10,1 82 0 0,4 108 0 1015,2
84 Quillota 02-05-2026 20:45 10,4 82 0 0,4 108 0 1015
83 Quillota 02-05-2026 20:30 10,7 80 0 0,9 185 0 1015,2
82 Quillota 02-05-2026 20:15 11,6 78 0 0 107 0 1015,2
81 Quillota 02-05-2026 20:00 11,9 78 0 0,4 185 0 1015,6
80 Quillota 02-05-2026 19:45 12,4 77 0 0,4 99 0 1015,6
79 Quillota 02-05-2026 19:30 13,4 74 0 0 172 0 1016,1
78 Quillota 02-05-2026 19:15 14,3 71 0 0 168 0 1015,8
77 Quillota 02-05-2026 19:00 14,6 71 0 0,9 207 0 1015,5
76 Quillota 02-05-2026 18:45 15,1 69 0 0,9 223 0 1015,1
75 Quillota 02-05-2026 18:30 16,2 69 0 0 316 0 1014,5
74 Quillota 02-05-2026 18:15 17,8 64 0 0,4 290 0 1014,6
73 Quillota 02-05-2026 18:00 19,3 62 0 0,4 247 5 1014,3
72 Quillota 02-05-2026 17:45 20,1 59 0 0,9 266 14 1014,1
71 Quillota 02-05-2026 17:30 21,2 57 0 0,9 228 35 1013,9
70 Quillota 02-05-2026 17:15 23 53 0 3,1 261 72 1013,9
69 Quillota 02-05-2026 17:00 23,8 51 0 0,9 222 114 1013,5
68 Quillota 02-05-2026 16:45 24,1 51 0 1,8 217 165 1013,3
67 Quillota 02-05-2026 16:30 25,2 49 0 1,8 271 211 1013,2
66 Quillota 02-05-2026 16:15 26,6 45 0 3,1 269 251 1012,7
65 Quillota 02-05-2026 16:00 26,7 45 0 0,9 286 290 1012,6
64 Quillota 02-05-2026 15:45 26,9 44 0 1,8 288 327 1012,6
63 Quillota 02-05-2026 15:30 27,3 41 0 1,8 231 362 1012,6
62 Quillota 02-05-2026 15:15 26,9 41 0 2,7 249 394 1012,6
61 Quillota 02-05-2026 15:00 26,8 41 0 2,2 267 424 1012,6
60 Quillota 02-05-2026 14:45 26,8 43 0 2,2 256 452 1012,7
59 Quillota 02-05-2026 14:30 26,7 43 0 2,2 265 476 1012,7
58 Quillota 02-05-2026 14:15 27,8 41 0 3,1 240 497 1012,9
57 Quillota 02-05-2026 14:00 28,4 33 0 0 317 519 1012,8
56 Quillota 02-05-2026 13:45 28,1 35 0 1,3 252 534 1013
55 Quillota 02-05-2026 13:30 27,7 37 0 1,3 308 548 1013
54 Quillota 02-05-2026 13:15 27,3 38 0 1,3 238 554 1013,2
53 Quillota 02-05-2026 13:00 26,9 39 0 1,3 214 561 1013,5
52 Quillota 02-05-2026 12:45 26,4 41 0 1,3 247 559 1013,4
51 Quillota 02-05-2026 12:30 25,8 44 0 1,8 279 561 1013,6
50 Quillota 02-05-2026 12:15 25,3 44 0 0,9 256 557 1014
49 Quillota 02-05-2026 12:00 24,6 47 0 0,9 225 547 1014,1
48 Quillota 02-05-2026 11:45 23,7 49 0 0,9 245 536 1014,2
47 Quillota 02-05-2026 11:30 23,2 50 0 0,9 273 520 1014,2
46 Quillota 02-05-2026 11:15 22,8 52 0 1,8 296 501 1014,3
45 Quillota 02-05-2026 11:00 21,8 55 0 0,9 190 478 1014,5
44 Quillota 02-05-2026 10:45 21 57 0 0,9 279 450 1014,7
43 Quillota 02-05-2026 10:30 20,1 59 0 0,9 298 422 1014,8
42 Quillota 02-05-2026 10:15 19,3 63 0 1,3 242 390 1014,8
41 Quillota 02-05-2026 10:00 18,4 65 0 1,3 266 357 1014,9
40 Quillota 02-05-2026 09:45 17,7 67 0 1,3 276 318 1014,8
39 Quillota 02-05-2026 09:30 15,9 76 0 0,9 203 278 1014,9
38 Quillota 02-05-2026 09:15 13,6 89 0 0,9 167 241 1014,8
37 Quillota 02-05-2026 09:00 12,1 94 0 0 272 206 1014,8
36 Quillota 02-05-2026 08:45 10,4 95 0 0,9 201 167 1015,2
35 Quillota 02-05-2026 08:30 8,6 94 0 0 210 127 1015,2
34 Quillota 02-05-2026 08:15 7,3 92 0 0 202 83 1014,9
33 Quillota 02-05-2026 08:00 7,7 92 0 0,4 144 14 1015,1
32 Quillota 02-05-2026 07:45 7,3 90 0 0 196 11 1015,2
31 Quillota 02-05-2026 07:30 8,3 94 0 0,4 117 5 1015,2
30 Quillota 02-05-2026 07:15 6,9 93 0 1,8 157 0 1015
29 Quillota 02-05-2026 07:00 6,8 92 0 0 114 0 1014,8
28 Quillota 02-05-2026 06:45 6,7 92 0 0 113 0 1014,9
27 Quillota 02-05-2026 06:30 7,1 92 0 0,9 122 0 1014,6
26 Quillota 02-05-2026 06:15 7,1 92 0 0,4 122 0 1014,5
25 Quillota 02-05-2026 06:00 7,1 92 0 0 122 0 1014,5
24 Quillota 02-05-2026 05:45 7,4 92 0 0 121 0 1014,5
23 Quillota 02-05-2026 05:30 7,6 92 0 0,9 123 0 1014,6
22 Quillota 02-05-2026 05:15 7,9 93 0 0 123 0 1014,6
21 Quillota 02-05-2026 05:00 7,8 91 0 0,9 123 0 1014,7
20 Quillota 02-05-2026 04:45 7,1 91 0 0 144 0 1014,8
19 Quillota 02-05-2026 04:30 7,3 92 0 0,4 144 0 1014,8
18 Quillota 02-05-2026 04:15 7,2 91 0 0 100 0 1014,8
17 Quillota 02-05-2026 04:00 7,3 92 0 0,4 100 0 1014,8
16 Quillota 02-05-2026 03:45 7,1 91 0 0,9 99 0 1015
15 Quillota 02-05-2026 03:30 7,1 92 0 0,4 27 0 1015,2
14 Quillota 02-05-2026 03:15 7,1 91 0 0,4 127 0 1015,4
13 Quillota 02-05-2026 03:00 7,2 91 0 0 127 0 1015,8
12 Quillota 02-05-2026 02:45 7,8 91 0 0 127 0 1015,9
11 Quillota 02-05-2026 02:30 7,6 90 0 0 127 0 1016,1
10 Quillota 02-05-2026 02:15 8,4 92 0 0 127 0 1016,3
9 Quillota 02-05-2026 02:00 7,2 90 0 0,4 99 0 1016,4
8 Quillota 02-05-2026 01:45 7,6 90 0 0 99 0 1016,4
7 Quillota 02-05-2026 01:30 8,1 92 0 0,4 99 0 1016,5
6 Quillota 02-05-2026 01:15 8,3 90 0 0 74 0 1016,6
5 Quillota 02-05-2026 01:00 8,1 91 0 0 74 0 1016,8
4 Quillota 02-05-2026 00:45 7,7 90 0 0 73 0 1016,9
3 Quillota 02-05-2026 00:30 7,7 90 0 0 76 0 1017,2
2 Quillota 02-05-2026 00:15 8 90 0 0 76 0 1017,4
1 Quillota 02-05-2026 00:00 7,8 90 0 0 75 0 1017,5